sensor_id;sensor_type;location;lat;lon;timestamp;pressure;altitude;pressure_sealevel;temperature;humidity
24390;BME280;12510;56.468;-3.004;2023-11-22T00:00:18;52712.34;;;-148.32;nan
24390;BME280;12510;56.468;-3.004;2023-11-22T00:02:46;52684.47;;;-148.32;nan
24390;BME280;12510;56.468;-3.004;2023-11-22T00:05:13;52650.63;;;-148.32;nan
24390;BME280;12510;56.468;-3.004;2023-11-22T00:07:39;52664.56;;;-148.32;nan
24390;BME280;12510;56.468;-3.004;2023-11-22T00:10:05;52696.41;;;-148.32;nan
24390;BME280;12510;56.468;-3.004;2023-11-22T00:12:32;52720.31;;;-148.32;nan
24390;BME280;12510;56.468;-3.004;2023-11-22T00:15:04;52684.47;;;-148.32;nan
24390;BME280;12510;56.468;-3.004;2023-11-22T00:17:32;52664.56;;;-148.32;nan
24390;BME280;12510;56.468;-3.004;2023-11-22T00:19:59;52563.00;;;-148.32;nan
24390;BME280;12510;56.468;-3.004;2023-11-22T00:22:28;52598.84;;;-148.32;nan
24390;BME280;12510;56.468;-3.004;2023-11-22T00:24:54;52656.59;;;-148.32;nan
24390;BME280;12510;56.468;-3.004;2023-11-22T00:27:20;52650.63;;;-148.32;nan
24390;BME280;12510;56.468;-3.004;2023-11-22T00:29:46;52630.69;;;-148.32;nan
24390;BME280;12510;56.468;-3.004;2023-11-22T00:32:12;52660.56;;;-148.32;nan
24390;BME280;12510;56.468;-3.004;2023-11-22T00:34:39;52700.38;;;-148.32;nan
24390;BME280;12510;56.468;-3.004;2023-11-22T00:37:05;52710.34;;;-148.32;nan
24390;BME280;12510;56.468;-3.004;2023-11-22T00:39:31;52698.41;;;-148.32;nan
24390;BME280;12510;56.468;-3.004;2023-11-22T00:41:57;52716.31;;;-148.32;nan
24390;BME280;12510;56.468;-3.004;2023-11-22T00:44:23;52640.66;;;-148.32;nan
24390;BME280;12510;56.468;-3.004;2023-11-22T00:46:50;52670.53;;;-148.32;nan
24390;BME280;12510;56.468;-3.004;2023-11-22T00:49:16;52660.56;;;-148.32;nan
24390;BME280;12510;56.468;-3.004;2023-11-22T00:51:43;52626.72;;;-148.32;nan
24390;BME280;12510;56.468;-3.004;2023-11-22T00:54:09;52624.72;;;-148.32;nan
24390;BME280;12510;56.468;-3.004;2023-11-22T00:56:35;52592.88;;;-148.32;nan
24390;BME280;12510;56.468;-3.004;2023-11-22T00:59:01;52682.47;;;-148.32;nan
24390;BME280;12510;56.468;-3.004;2023-11-22T01:01:30;52632.69;;;-148.32;nan
24390;BME280;12510;56.468;-3.004;2023-11-22T01:03:58;52624.72;;;-148.32;nan
24390;BME280;12510;56.468;-3.004;2023-11-22T01:06:24;52606.81;;;-148.32;nan
24390;BME280;12510;56.468;-3.004;2023-11-22T01:08:50;52628.72;;;-148.32;nan
24390;BME280;12510;56.468;-3.004;2023-11-22T01:11:16;52529.16;;;-148.32;nan
24390;BME280;12510;56.468;-3.004;2023-11-22T01:13:43;52459.47;;;-148.32;nan
24390;BME280;12510;56.468;-3.004;2023-11-22T01:16:09;52389.81;;;-148.32;nan
24390;BME280;12510;56.468;-3.004;2023-11-22T01:18:36;52385.81;;;-148.32;nan
24390;BME280;12510;56.468;-3.004;2023-11-22T01:21:02;52186.72;;;-148.32;nan
24390;BME280;12510;56.468;-3.004;2023-11-22T01:23:32;52349.97;;;-148.32;nan
24390;BME280;12510;56.468;-3.004;2023-11-22T01:25:59;52202.66;;;-148.32;nan
24390;BME280;12510;56.468;-3.004;2023-11-22T01:28:26;51947.84;;;-148.32;nan
24390;BME280;12510;56.468;-3.004;2023-11-22T01:31:00;52306.19;;;-148.32;nan
24390;BME280;12510;56.468;-3.004;2023-11-22T01:33:28;52584.91;;;-148.32;nan
24390;BME280;12510;56.468;-3.004;2023-11-22T01:35:55;52409.72;;;-148.32;nan
24390;BME280;12510;56.468;-3.004;2023-11-22T01:38:21;52509.25;;;-148.32;nan
24390;BME280;12510;56.468;-3.004;2023-11-22T01:40:50;52427.63;;;-148.32;nan
24390;BME280;12510;56.468;-3.004;2023-11-22T01:43:17;52441.56;;;-148.32;nan
24390;BME280;12510;56.468;-3.004;2023-11-22T01:45:44;52419.66;;;-148.32;nan
24390;BME280;12510;56.468;-3.004;2023-11-22T01:48:11;52397.75;;;-148.32;nan
24390;BME280;12510;56.468;-3.004;2023-11-22T01:50:37;52485.38;;;-148.32;nan
24390;BME280;12510;56.468;-3.004;2023-11-22T01:53:04;52453.50;;;-148.32;nan
24390;BME280;12510;56.468;-3.004;2023-11-22T01:55:30;52308.16;;;-148.32;nan
24390;BME280;12510;56.468;-3.004;2023-11-22T01:57:56;52361.94;;;-148.32;nan
24390;BME280;12510;56.468;-3.004;2023-11-22T02:00:23;52338.03;;;-148.32;nan
24390;BME280;12510;56.468;-3.004;2023-11-22T02:02:51;52328.09;;;-148.32;nan
24390;BME280;12510;56.468;-3.004;2023-11-22T02:05:17;52445.53;;;-148.32;nan
24390;BME280;12510;56.468;-3.004;2023-11-22T02:07:43;52383.81;;;-148.32;nan
24390;BME280;12510;56.468;-3.004;2023-11-22T02:10:10;52359.94;;;-148.32;nan
24390;BME280;12510;56.468;-3.004;2023-11-22T02:12:36;52330.06;;;-148.32;nan
24390;BME280;12510;56.468;-3.004;2023-11-22T02:15:03;52445.53;;;-148.32;nan
24390;BME280;12510;56.468;-3.004;2023-11-22T02:17:30;52521.19;;;-148.32;nan
24390;BME280;12510;56.468;-3.004;2023-11-22T02:19:57;52509.25;;;-148.32;nan
24390;BME280;12510;56.468;-3.004;2023-11-22T02:22:24;52449.53;;;-148.32;nan
24390;BME280;12510;56.468;-3.004;2023-11-22T02:24:50;52389.81;;;-148.32;nan
24390;BME280;12510;56.468;-3.004;2023-11-22T02:27:16;52107.09;;;-148.32;nan
24390;BME280;12510;56.468;-3.004;2023-11-22T02:29:44;51509.91;;;-148.32;nan
24390;BME280;12510;56.468;-3.004;2023-11-22T02:32:11;51963.75;;;-148.32;nan
24390;BME280;12510;56.468;-3.004;2023-11-22T02:34:37;51951.81;;;-148.32;nan
24390;BME280;12510;56.468;-3.004;2023-11-22T02:37:05;52045.38;;;-148.32;nan
24390;BME280;12510;56.468;-3.004;2023-11-22T02:39:46;51900.06;;;-148.32;nan
24390;BME280;12510;56.468;-3.004;2023-11-22T02:42:15;52310.16;;;-148.32;nan
24390;BME280;12510;56.468;-3.004;2023-11-22T02:44:41;52385.81;;;-148.32;nan
24390;BME280;12510;56.468;-3.004;2023-11-22T02:47:08;52170.81;;;-148.32;nan
24390;BME280;12510;56.468;-3.004;2023-11-22T02:49:36;52176.78;;;-148.32;nan
24390;BME280;12510;56.468;-3.004;2023-11-22T02:52:02;52067.28;;;-148.32;nan
24390;BME280;12510;56.468;-3.004;2023-11-22T02:54:29;51923.94;;;-148.32;nan
24390;BME280;12510;56.468;-3.004;2023-11-22T02:56:55;51605.47;;;-148.32;nan
24390;BME280;12510;56.468;-3.004;2023-11-22T02:59:21;51796.56;;;-148.32;nan
24390;BME280;12510;56.468;-3.004;2023-11-22T03:01:47;51820.44;;;-148.32;nan
24390;BME280;12510;56.468;-3.004;2023-11-22T03:04:13;52091.16;;;-148.32;nan
24390;BME280;12510;56.468;-3.004;2023-11-22T03:06:40;52266.38;;;-148.32;nan
24390;BME280;12510;56.468;-3.004;2023-11-22T03:09:06;52306.19;;;-148.32;nan
24390;BME280;12510;56.468;-3.004;2023-11-22T03:11:35;52407.72;;;-148.32;nan
24390;BME280;12510;56.468;-3.004;2023-11-22T03:14:01;52399.75;;;-148.32;nan
24390;BME280;12510;56.468;-3.004;2023-11-22T03:16:30;52531.16;;;-148.32;nan
24390;BME280;12510;56.468;-3.004;2023-11-22T03:18:57;52511.25;;;-148.32;nan
24390;BME280;12510;56.468;-3.004;2023-11-22T03:21:24;52477.41;;;-148.32;nan
24390;BME280;12510;56.468;-3.004;2023-11-22T03:23:53;52437.56;;;-148.32;nan
24390;BME280;12510;56.468;-3.004;2023-11-22T03:26:21;52457.50;;;-148.32;nan
24390;BME280;12510;56.468;-3.004;2023-11-22T03:28:47;52644.66;;;-148.32;nan
24390;BME280;12510;56.468;-3.004;2023-11-22T03:31:13;52580.94;;;-148.32;nan
24390;BME280;12510;56.468;-3.004;2023-11-22T03:33:41;52553.06;;;-148.32;nan
24390;BME280;12510;56.468;-3.004;2023-11-22T03:36:07;52431.59;;;-148.32;nan
24390;BME280;12510;56.468;-3.004;2023-11-22T03:38:33;52481.38;;;-148.32;nan
24390;BME280;12510;56.468;-3.004;2023-11-22T03:40:59;52539.13;;;-148.32;nan
24390;BME280;12510;56.468;-3.004;2023-11-22T03:43:25;52521.19;;;-148.32;nan
24390;BME280;12510;56.468;-3.004;2023-11-22T03:45:53;52489.34;;;-148.32;nan
24390;BME280;12510;56.468;-3.004;2023-11-22T03:48:20;52433.59;;;-148.32;nan
24390;BME280;12510;56.468;-3.004;2023-11-22T03:50:48;52441.56;;;-148.32;nan
24390;BME280;12510;56.468;-3.004;2023-11-22T03:53:14;52555.03;;;-148.32;nan
24390;BME280;12510;56.468;-3.004;2023-11-22T03:55:40;52537.13;;;-148.32;nan
24390;BME280;12510;56.468;-3.004;2023-11-22T03:58:06;52734.25;;;-148.32;nan
24390;BME280;12510;56.468;-3.004;2023-11-22T04:00:35;52537.13;;;-148.32;nan
24390;BME280;12510;56.468;-3.004;2023-11-22T04:03:01;52545.09;;;-148.32;nan
24390;BME280;12510;56.468;-3.004;2023-11-22T04:05:27;52557.03;;;-148.32;nan
24390;BME280;12510;56.468;-3.004;2023-11-22T04:07:54;52598.84;;;-148.32;nan
24390;BME280;12510;56.468;-3.004;2023-11-22T04:10:22;52574.97;;;-148.32;nan
24390;BME280;12510;56.468;-3.004;2023-11-22T04:12:48;52660.56;;;-148.32;nan
24390;BME280;12510;56.468;-3.004;2023-11-22T04:15:15;52688.44;;;-148.32;nan
24390;BME280;12510;56.468;-3.004;2023-11-22T04:17:41;52694.41;;;-148.32;nan
24390;BME280;12510;56.468;-3.004;2023-11-22T04:20:07;52686.44;;;-148.32;nan
24390;BME280;12510;56.468;-3.004;2023-11-22T04:22:39;52702.38;;;-148.32;nan
24390;BME280;12510;56.468;-3.004;2023-11-22T04:25:06;52678.50;;;-148.32;nan
24390;BME280;12510;56.468;-3.004;2023-11-22T04:27:33;52626.72;;;-148.32;nan
24390;BME280;12510;56.468;-3.004;2023-11-22T04:29:59;52616.78;;;-148.32;nan
24390;BME280;12510;56.468;-3.004;2023-11-22T04:32:25;52640.66;;;-148.32;nan
24390;BME280;12510;56.468;-3.004;2023-11-22T04:34:51;52660.56;;;-148.32;nan
24390;BME280;12510;56.468;-3.004;2023-11-22T04:37:17;52686.44;;;-148.32;nan
24390;BME280;12510;56.468;-3.004;2023-11-22T04:39:43;52644.66;;;-148.32;nan
24390;BME280;12510;56.468;-3.004;2023-11-22T04:42:10;52642.66;;;-148.32;nan
24390;BME280;12510;56.468;-3.004;2023-11-22T04:44:36;52680.47;;;-148.32;nan
24390;BME280;12510;56.468;-3.004;2023-11-22T04:47:02;52664.56;;;-148.32;nan
24390;BME280;12510;56.468;-3.004;2023-11-22T04:49:28;52666.53;;;-148.32;nan
24390;BME280;12510;56.468;-3.004;2023-11-22T04:51:54;52692.44;;;-148.32;nan
24390;BME280;12510;56.468;-3.004;2023-11-22T04:54:21;52734.25;;;-148.32;nan
24390;BME280;12510;56.468;-3.004;2023-11-22T04:56:47;52722.28;;;-148.32;nan
24390;BME280;12510;56.468;-3.004;2023-11-22T04:59:13;52742.19;;;-148.32;nan
24390;BME280;12510;56.468;-3.004;2023-11-22T05:01:39;52788.00;;;-148.32;nan
24390;BME280;12510;56.468;-3.004;2023-11-22T05:04:05;52744.19;;;-148.32;nan
24390;BME280;12510;56.468;-3.004;2023-11-22T05:06:32;52748.19;;;-148.32;nan
24390;BME280;12510;56.468;-3.004;2023-11-22T05:08:58;52768.09;;;-148.32;nan
24390;BME280;12510;56.468;-3.004;2023-11-22T05:11:24;52712.34;;;-148.32;nan
24390;BME280;12510;56.468;-3.004;2023-11-22T05:13:50;52684.47;;;-148.32;nan
24390;BME280;12510;56.468;-3.004;2023-11-22T05:16:17;52632.69;;;-148.32;nan
24390;BME280;12510;56.468;-3.004;2023-11-22T05:18:43;52632.69;;;-148.32;nan
24390;BME280;12510;56.468;-3.004;2023-11-22T05:21:10;52608.81;;;-148.32;nan
24390;BME280;12510;56.468;-3.004;2023-11-22T05:23:36;52580.94;;;-148.32;nan
24390;BME280;12510;56.468;-3.004;2023-11-22T05:26:03;52660.56;;;-148.32;nan
24390;BME280;12510;56.468;-3.004;2023-11-22T05:28:30;52628.72;;;-148.32;nan
24390;BME280;12510;56.468;-3.004;2023-11-22T05:30:57;52648.63;;;-148.32;nan
24390;BME280;12510;56.468;-3.004;2023-11-22T05:33:23;52582.91;;;-148.32;nan
24390;BME280;12510;56.468;-3.004;2023-11-22T05:35:49;52596.84;;;-148.32;nan
24390;BME280;12510;56.468;-3.004;2023-11-22T05:38:16;52487.34;;;-148.32;nan
24390;BME280;12510;56.468;-3.004;2023-11-22T05:40:42;52509.25;;;-148.32;nan
24390;BME280;12510;56.468;-3.004;2023-11-22T05:43:09;52483.38;;;-148.32;nan
24390;BME280;12510;56.468;-3.004;2023-11-22T05:45:35;52433.59;;;-148.32;nan
24390;BME280;12510;56.468;-3.004;2023-11-22T05:48:01;52537.13;;;-148.32;nan
24390;BME280;12510;56.468;-3.004;2023-11-22T05:50:28;52517.22;;;-148.32;nan
24390;BME280;12510;56.468;-3.004;2023-11-22T05:52:54;52328.09;;;-148.32;nan
24390;BME280;12510;56.468;-3.004;2023-11-22T05:55:20;52545.09;;;-148.32;nan
24390;BME280;12510;56.468;-3.004;2023-11-22T05:57:46;52407.72;;;-148.32;nan
24390;BME280;12510;56.468;-3.004;2023-11-22T06:00:13;52405.72;;;-148.32;nan
24390;BME280;12510;56.468;-3.004;2023-11-22T06:02:40;52342.00;;;-148.32;nan
24390;BME280;12510;56.468;-3.004;2023-11-22T06:05:06;52326.09;;;-148.32;nan
24390;BME280;12510;56.468;-3.004;2023-11-22T06:07:32;52280.31;;;-148.32;nan
24390;BME280;12510;56.468;-3.004;2023-11-22T06:09:59;52361.94;;;-148.32;nan
24390;BME280;12510;56.468;-3.004;2023-11-22T06:12:28;52353.97;;;-148.32;nan
24390;BME280;12510;56.468;-3.004;2023-11-22T06:14:55;52379.84;;;-148.32;nan
24390;BME280;12510;56.468;-3.004;2023-11-22T06:17:21;52393.78;;;-148.32;nan
24390;BME280;12510;56.468;-3.004;2023-11-22T06:19:47;52250.44;;;-148.32;nan
24390;BME280;12510;56.468;-3.004;2023-11-22T06:22:13;52443.56;;;-148.32;nan
24390;BME280;12510;56.468;-3.004;2023-11-22T06:24:39;52457.50;;;-148.32;nan
24390;BME280;12510;56.468;-3.004;2023-11-22T06:27:07;52369.88;;;-148.32;nan
24390;BME280;12510;56.468;-3.004;2023-11-22T06:29:33;52455.50;;;-148.32;nan
24390;BME280;12510;56.468;-3.004;2023-11-22T06:31:59;52489.34;;;-148.32;nan
24390;BME280;12510;56.468;-3.004;2023-11-22T06:34:25;52411.69;;;-148.32;nan
24390;BME280;12510;56.468;-3.004;2023-11-22T06:36:52;52250.44;;;-148.32;nan
24390;BME280;12510;56.468;-3.004;2023-11-22T06:39:18;52324.09;;;-148.32;nan
24390;BME280;12510;56.468;-3.004;2023-11-22T06:41:44;52272.34;;;-148.32;nan
24390;BME280;12510;56.468;-3.004;2023-11-22T06:44:10;52359.94;;;-148.32;nan
24390;BME280;12510;56.468;-3.004;2023-11-22T06:46:36;52238.50;;;-148.32;nan
24390;BME280;12510;56.468;-3.004;2023-11-22T06:49:03;52272.34;;;-148.32;nan
24390;BME280;12510;56.468;-3.004;2023-11-22T06:51:29;52270.34;;;-148.32;nan
24390;BME280;12510;56.468;-3.004;2023-11-22T06:53:55;52218.59;;;-148.32;nan
24390;BME280;12510;56.468;-3.004;2023-11-22T06:56:21;52385.81;;;-148.32;nan
24390;BME280;12510;56.468;-3.004;2023-11-22T06:58:47;52330.06;;;-148.32;nan
24390;BME280;12510;56.468;-3.004;2023-11-22T07:01:13;52338.03;;;-148.32;nan
24390;BME280;12510;56.468;-3.004;2023-11-22T07:03:41;52590.88;;;-148.32;nan
24390;BME280;12510;56.468;-3.004;2023-11-22T07:06:07;52614.78;;;-148.32;nan
24390;BME280;12510;56.468;-3.004;2023-11-22T07:08:33;52670.53;;;-148.32;nan
24390;BME280;12510;56.468;-3.004;2023-11-22T07:11:00;52487.34;;;-148.32;nan
24390;BME280;12510;56.468;-3.004;2023-11-22T07:13:27;52377.84;;;-148.32;nan
24390;BME280;12510;56.468;-3.004;2023-11-22T07:15:54;52407.72;;;-148.32;nan
24390;BME280;12510;56.468;-3.004;2023-11-22T07:18:21;52314.16;;;-148.32;nan
24390;BME280;12510;56.468;-3.004;2023-11-22T07:20:50;52208.63;;;-148.32;nan
24390;BME280;12510;56.468;-3.004;2023-11-22T07:23:16;52314.16;;;-148.32;nan
24390;BME280;12510;56.468;-3.004;2023-11-22T07:25:42;52270.34;;;-148.32;nan
24390;BME280;12510;56.468;-3.004;2023-11-22T07:28:09;52395.78;;;-148.32;nan
24390;BME280;12510;56.468;-3.004;2023-11-22T07:30:35;52357.94;;;-148.32;nan
24390;BME280;12510;56.468;-3.004;2023-11-22T07:33:04;52224.56;;;-148.32;nan
24390;BME280;12510;56.468;-3.004;2023-11-22T07:35:32;52202.66;;;-148.32;nan
24390;BME280;12510;56.468;-3.004;2023-11-22T07:37:58;52262.38;;;-148.32;nan
24390;BME280;12510;56.468;-3.004;2023-11-22T07:40:24;52401.75;;;-148.32;nan
24390;BME280;12510;56.468;-3.004;2023-11-22T07:42:50;52441.56;;;-148.32;nan
24390;BME280;12510;56.468;-3.004;2023-11-22T07:45:16;52557.03;;;-148.32;nan
24390;BME280;12510;56.468;-3.004;2023-11-22T07:47:43;52433.59;;;-148.32;nan
24390;BME280;12510;56.468;-3.004;2023-11-22T07:50:09;52505.28;;;-148.32;nan
24390;BME280;12510;56.468;-3.004;2023-11-22T07:52:37;52423.66;;;-148.32;nan
24390;BME280;12510;56.468;-3.004;2023-11-22T07:55:04;52481.38;;;-148.32;nan
24390;BME280;12510;56.468;-3.004;2023-11-22T07:57:34;52391.78;;;-148.32;nan
24390;BME280;12510;56.468;-3.004;2023-11-22T08:00:00;52244.47;;;-148.32;nan
24390;BME280;12510;56.468;-3.004;2023-11-22T08:02:27;52164.84;;;-148.32;nan
24390;BME280;12510;56.468;-3.004;2023-11-22T08:04:54;52049.38;;;-148.32;nan
24390;BME280;12510;56.468;-3.004;2023-11-22T08:07:21;52158.84;;;-148.32;nan
24390;BME280;12510;56.468;-3.004;2023-11-22T08:09:48;52310.16;;;-148.32;nan
24390;BME280;12510;56.468;-3.004;2023-11-22T08:12:14;52318.13;;;-148.32;nan
24390;BME280;12510;56.468;-3.004;2023-11-22T08:14:41;52401.75;;;-148.32;nan
24390;BME280;12510;56.468;-3.004;2023-11-22T08:17:08;52359.94;;;-148.32;nan
24390;BME280;12510;56.468;-3.004;2023-11-22T08:19:35;52421.66;;;-148.32;nan
24390;BME280;12510;56.468;-3.004;2023-11-22T08:22:01;52425.63;;;-148.32;nan
24390;BME280;12510;56.468;-3.004;2023-11-22T08:24:27;52367.91;;;-148.32;nan
24390;BME280;12510;56.468;-3.004;2023-11-22T08:26:53;52439.56;;;-148.32;nan
24390;BME280;12510;56.468;-3.004;2023-11-22T08:29:19;52445.53;;;-148.32;nan
24390;BME280;12510;56.468;-3.004;2023-11-22T08:31:45;52431.59;;;-148.32;nan
24390;BME280;12510;56.468;-3.004;2023-11-22T08:34:12;52521.19;;;-148.32;nan
24390;BME280;12510;56.468;-3.004;2023-11-22T08:36:38;52525.19;;;-148.32;nan
24390;BME280;12510;56.468;-3.004;2023-11-22T08:39:04;52545.09;;;-148.32;nan
24390;BME280;12510;56.468;-3.004;2023-11-22T08:41:30;52576.94;;;-148.32;nan
24390;BME280;12510;56.468;-3.004;2023-11-22T08:43:57;52521.19;;;-148.32;nan
24390;BME280;12510;56.468;-3.004;2023-11-22T08:46:24;52509.25;;;-148.32;nan
24390;BME280;12510;56.468;-3.004;2023-11-22T08:48:50;52471.44;;;-148.32;nan
24390;BME280;12510;56.468;-3.004;2023-11-22T08:51:19;52523.19;;;-148.32;nan
24390;BME280;12510;56.468;-3.004;2023-11-22T08:53:45;52501.28;;;-148.32;nan
24390;BME280;12510;56.468;-3.004;2023-11-22T08:56:11;52507.25;;;-148.32;nan
24390;BME280;12510;56.468;-3.004;2023-11-22T08:58:38;52529.16;;;-148.32;nan
24390;BME280;12510;56.468;-3.004;2023-11-22T09:01:05;52525.19;;;-148.32;nan
24390;BME280;12510;56.468;-3.004;2023-11-22T09:03:31;52503.28;;;-148.32;nan
24390;BME280;12510;56.468;-3.004;2023-11-22T09:05:58;52455.50;;;-148.32;nan
24390;BME280;12510;56.468;-3.004;2023-11-22T09:08:26;52495.31;;;-148.32;nan
24390;BME280;12510;56.468;-3.004;2023-11-22T09:10:52;52543.09;;;-148.32;nan
24390;BME280;12510;56.468;-3.004;2023-11-22T09:13:18;52563.00;;;-148.32;nan
24390;BME280;12510;56.468;-3.004;2023-11-22T09:15:45;52529.16;;;-148.32;nan
24390;BME280;12510;56.468;-3.004;2023-11-22T09:18:11;52545.09;;;-148.32;nan
24390;BME280;12510;56.468;-3.004;2023-11-22T09:20:41;52561.03;;;-148.32;nan
24390;BME280;12510;56.468;-3.004;2023-11-22T09:23:10;52477.41;;;-148.32;nan
24390;BME280;12510;56.468;-3.004;2023-11-22T09:25:36;52576.94;;;-148.32;nan
24390;BME280;12510;56.468;-3.004;2023-11-22T09:28:02;52473.41;;;-148.32;nan
24390;BME280;12510;56.468;-3.004;2023-11-22T09:30:30;52425.63;;;-148.32;nan
24390;BME280;12510;56.468;-3.004;2023-11-22T09:33:09;52493.31;;;-148.32;nan
24390;BME280;12510;56.468;-3.004;2023-11-22T09:35:37;52541.09;;;-148.32;nan
24390;BME280;12510;56.468;-3.004;2023-11-22T09:38:04;52473.41;;;-148.32;nan
24390;BME280;12510;56.468;-3.004;2023-11-22T09:40:30;52465.44;;;-148.32;nan
24390;BME280;12510;56.468;-3.004;2023-11-22T09:42:58;52549.06;;;-148.32;nan
24390;BME280;12510;56.468;-3.004;2023-11-22T09:45:25;52541.09;;;-148.32;nan
24390;BME280;12510;56.468;-3.004;2023-11-22T09:47:51;52608.81;;;-148.32;nan
24390;BME280;12510;56.468;-3.004;2023-11-22T09:50:19;52493.31;;;-148.32;nan
24390;BME280;12510;56.468;-3.004;2023-11-22T09:52:50;52495.31;;;-148.32;nan
24390;BME280;12510;56.468;-3.004;2023-11-22T09:55:20;52521.19;;;-148.32;nan
24390;BME280;12510;56.468;-3.004;2023-11-22T09:57:46;52606.81;;;-148.32;nan
24390;BME280;12510;56.468;-3.004;2023-11-22T10:00:13;52618.75;;;-148.32;nan
24390;BME280;12510;56.468;-3.004;2023-11-22T10:02:42;52628.72;;;-148.32;nan
24390;BME280;12510;56.468;-3.004;2023-11-22T10:05:08;52776.06;;;-148.32;nan
24390;BME280;12510;56.468;-3.004;2023-11-22T10:07:34;52758.13;;;-148.32;nan
24390;BME280;12510;56.468;-3.004;2023-11-22T10:10:04;52756.13;;;-148.32;nan
24390;BME280;12510;56.468;-3.004;2023-11-22T10:12:36;52762.13;;;-148.32;nan
24390;BME280;12510;56.468;-3.004;2023-11-22T10:15:12;52819.84;;;-148.32;nan
24390;BME280;12510;56.468;-3.004;2023-11-22T10:17:38;52722.28;;;-148.32;nan
24390;BME280;12510;56.468;-3.004;2023-11-22T10:20:05;52795.97;;;-148.32;nan
24390;BME280;12510;56.468;-3.004;2023-11-22T10:22:43;52791.97;;;-148.32;nan
24390;BME280;12510;56.468;-3.004;2023-11-22T10:25:10;52696.41;;;-148.32;nan
24390;BME280;12510;56.468;-3.004;2023-11-22T10:27:37;52704.38;;;-148.32;nan
24390;BME280;12510;56.468;-3.004;2023-11-22T10:30:03;52762.13;;;-148.32;nan
24390;BME280;12510;56.468;-3.004;2023-11-22T10:32:30;52732.25;;;-148.32;nan
24390;BME280;12510;56.468;-3.004;2023-11-22T10:34:57;52700.38;;;-148.32;nan
24390;BME280;12510;56.468;-3.004;2023-11-22T10:37:23;52746.19;;;-148.32;nan
24390;BME280;12510;56.468;-3.004;2023-11-22T10:39:51;52786.00;;;-148.32;nan
24390;BME280;12510;56.468;-3.004;2023-11-22T10:42:18;52805.91;;;-148.32;nan
24390;BME280;12510;56.468;-3.004;2023-11-22T10:44:45;52829.81;;;-148.32;nan
24390;BME280;12510;56.468;-3.004;2023-11-22T10:47:13;52752.16;;;-148.32;nan
24390;BME280;12510;56.468;-3.004;2023-11-22T10:49:40;52784.03;;;-148.32;nan
24390;BME280;12510;56.468;-3.004;2023-11-22T10:52:07;52791.97;;;-148.32;nan
24390;BME280;12510;56.468;-3.004;2023-11-22T10:54:38;52776.06;;;-148.32;nan
24390;BME280;12510;56.468;-3.004;2023-11-22T10:57:07;52760.13;;;-148.32;nan
24390;BME280;12510;56.468;-3.004;2023-11-22T10:59:33;52742.19;;;-148.32;nan
24390;BME280;12510;56.468;-3.004;2023-11-22T11:02:02;52724.28;;;-148.32;nan
24390;BME280;12510;56.468;-3.004;2023-11-22T11:04:31;52748.19;;;-148.32;nan
24390;BME280;12510;56.468;-3.004;2023-11-22T11:06:59;52708.34;;;-148.32;nan
24390;BME280;12510;56.468;-3.004;2023-11-22T11:09:28;52718.31;;;-148.32;nan
24390;BME280;12510;56.468;-3.004;2023-11-22T11:11:58;52756.13;;;-148.32;nan
24390;BME280;12510;56.468;-3.004;2023-11-22T11:14:25;52704.38;;;-148.32;nan
24390;BME280;12510;56.468;-3.004;2023-11-22T11:16:52;52716.31;;;-148.32;nan
24390;BME280;12510;56.468;-3.004;2023-11-22T11:19:20;52730.25;;;-148.32;nan
24390;BME280;12510;56.468;-3.004;2023-11-22T11:21:50;52744.19;;;-148.32;nan
24390;BME280;12510;56.468;-3.004;2023-11-22T11:24:16;52742.19;;;-148.32;nan
24390;BME280;12510;56.468;-3.004;2023-11-22T11:26:47;52784.03;;;-148.32;nan
24390;BME280;12510;56.468;-3.004;2023-11-22T11:29:33;52774.06;;;-148.32;nan
24390;BME280;12510;56.468;-3.004;2023-11-22T11:31:59;52827.81;;;-148.32;nan
24390;BME280;12510;56.468;-3.004;2023-11-22T11:34:28;52799.94;;;-148.32;nan
24390;BME280;12510;56.468;-3.004;2023-11-22T11:36:55;52744.19;;;-148.32;nan
24390;BME280;12510;56.468;-3.004;2023-11-22T11:39:26;52805.91;;;-148.32;nan
24390;BME280;12510;56.468;-3.004;2023-11-22T11:42:07;52801.94;;;-148.32;nan
24390;BME280;12510;56.468;-3.004;2023-11-22T11:44:33;52782.03;;;-148.32;nan
24390;BME280;12510;56.468;-3.004;2023-11-22T11:47:08;52764.09;;;-148.32;nan
24390;BME280;12510;56.468;-3.004;2023-11-22T11:49:34;52736.22;;;-148.32;nan
24390;BME280;12510;56.468;-3.004;2023-11-22T11:52:02;52716.31;;;-148.32;nan
24390;BME280;12510;56.468;-3.004;2023-11-22T11:54:29;52803.94;;;-148.32;nan
24390;BME280;12510;56.468;-3.004;2023-11-22T11:56:59;52764.09;;;-148.32;nan
24390;BME280;12510;56.468;-3.004;2023-11-22T11:59:25;52706.38;;;-148.32;nan
24390;BME280;12510;56.468;-3.004;2023-11-22T12:01:52;52784.03;;;-148.32;nan
24390;BME280;12510;56.468;-3.004;2023-11-22T12:04:19;52819.84;;;-148.32;nan
24390;BME280;12510;56.468;-3.004;2023-11-22T12:06:45;52807.91;;;-148.32;nan
24390;BME280;12510;56.468;-3.004;2023-11-22T12:09:11;52829.81;;;-148.32;nan
24390;BME280;12510;56.468;-3.004;2023-11-22T12:11:37;52837.78;;;-148.32;nan
24390;BME280;12510;56.468;-3.004;2023-11-22T12:14:05;52813.88;;;-148.32;nan
24390;BME280;12510;56.468;-3.004;2023-11-22T12:16:31;52776.06;;;-148.32;nan
24390;BME280;12510;56.468;-3.004;2023-11-22T12:18:57;52786.00;;;-148.32;nan
24390;BME280;12510;56.468;-3.004;2023-11-22T12:21:24;52819.84;;;-148.32;nan
24390;BME280;12510;56.468;-3.004;2023-11-22T12:23:51;52762.13;;;-148.32;nan
24390;BME280;12510;56.468;-3.004;2023-11-22T12:26:19;52762.13;;;-148.32;nan
24390;BME280;12510;56.468;-3.004;2023-11-22T12:28:46;52780.03;;;-148.32;nan
24390;BME280;12510;56.468;-3.004;2023-11-22T12:31:14;52708.34;;;-148.32;nan
24390;BME280;12510;56.468;-3.004;2023-11-22T12:33:41;52722.28;;;-148.32;nan
24390;BME280;12510;56.468;-3.004;2023-11-22T12:36:07;52716.31;;;-148.32;nan
24390;BME280;12510;56.468;-3.004;2023-11-22T12:38:43;52746.19;;;-148.32;nan
24390;BME280;12510;56.468;-3.004;2023-11-22T12:41:09;52726.28;;;-148.32;nan
24390;BME280;12510;56.468;-3.004;2023-11-22T12:43:35;52776.06;;;-148.32;nan
24390;BME280;12510;56.468;-3.004;2023-11-22T12:46:05;52674.50;;;-148.32;nan
24390;BME280;12510;56.468;-3.004;2023-11-22T12:48:42;52704.38;;;-148.32;nan